sensor_id;sensor_type;location;lat;lon;timestamp;temperature;humidity
69031;DHT22;56083;48.774;8.942;2023-04-30T00:00:12;10.10;99.90
69031;DHT22;56083;48.774;8.942;2023-04-30T00:02:37;10.10;99.90
69031;DHT22;56083;48.774;8.942;2023-04-30T00:05:03;10.20;99.90
69031;DHT22;56083;48.774;8.942;2023-04-30T00:07:29;10.20;99.90
69031;DHT22;56083;48.774;8.942;2023-04-30T00:09:55;10.10;99.90
69031;DHT22;56083;48.774;8.942;2023-04-30T00:12:20;10.10;99.90
69031;DHT22;56083;48.774;8.942;2023-04-30T00:14:46;10.10;99.90
69031;DHT22;56083;48.774;8.942;2023-04-30T00:17:12;10.10;99.90
69031;DHT22;56083;48.774;8.942;2023-04-30T00:19:37;10.10;99.90
69031;DHT22;56083;48.774;8.942;2023-04-30T00:22:03;10.10;99.90
69031;DHT22;56083;48.774;8.942;2023-04-30T00:24:30;10.10;99.90
69031;DHT22;56083;48.774;8.942;2023-04-30T00:26:55;10.10;99.90
69031;DHT22;56083;48.774;8.942;2023-04-30T00:29:21;10.10;99.90
69031;DHT22;56083;48.774;8.942;2023-04-30T00:31:47;10.10;99.90
69031;DHT22;56083;48.774;8.942;2023-04-30T00:34:13;10.00;99.90
69031;DHT22;56083;48.774;8.942;2023-04-30T00:36:38;10.00;99.90
69031;DHT22;56083;48.774;8.942;2023-04-30T00:39:05;10.00;99.90
69031;DHT22;56083;48.774;8.942;2023-04-30T00:41:32;10.00;99.90
69031;DHT22;56083;48.774;8.942;2023-04-30T00:43:58;10.00;99.90
69031;DHT22;56083;48.774;8.942;2023-04-30T00:46:24;10.00;99.90
69031;DHT22;56083;48.774;8.942;2023-04-30T00:48:49;10.00;99.90
69031;DHT22;56083;48.774;8.942;2023-04-30T00:51:15;10.00;99.90
69031;DHT22;56083;48.774;8.942;2023-04-30T00:53:41;10.00;99.90
69031;DHT22;56083;48.774;8.942;2023-04-30T00:56:08;10.00;99.90
69031;DHT22;56083;48.774;8.942;2023-04-30T00:58:35;10.00;99.90
69031;DHT22;56083;48.774;8.942;2023-04-30T01:01:02;10.00;99.90
69031;DHT22;56083;48.774;8.942;2023-04-30T01:03:28;10.00;99.90
69031;DHT22;56083;48.774;8.942;2023-04-30T01:05:53;9.90;99.90
69031;DHT22;56083;48.774;8.942;2023-04-30T01:08:19;10.00;99.90
69031;DHT22;56083;48.774;8.942;2023-04-30T01:11:11;9.90;99.90
69031;DHT22;56083;48.774;8.942;2023-04-30T01:13:49;9.90;99.90
69031;DHT22;56083;48.774;8.942;2023-04-30T01:16:27;9.90;99.90
69031;DHT22;56083;48.774;8.942;2023-04-30T01:21:22;9.90;99.90
69031;DHT22;56083;48.774;8.942;2023-04-30T01:29:49;9.90;99.90
69031;DHT22;56083;48.774;8.942;2023-04-30T01:32:16;9.90;99.90
69031;DHT22;56083;48.774;8.942;2023-04-30T01:34:42;9.90;99.90
69031;DHT22;56083;48.774;8.942;2023-04-30T01:48:06;9.80;99.90
69031;DHT22;56083;48.774;8.942;2023-04-30T01:51:42;9.80;99.90
69031;DHT22;56083;48.774;8.942;2023-04-30T01:53:48;9.80;99.90
69031;DHT22;56083;48.774;8.942;2023-04-30T01:56:39;9.80;99.90
69031;DHT22;56083;48.774;8.942;2023-04-30T01:59:06;9.70;99.90
69031;DHT22;56083;48.774;8.942;2023-04-30T02:01:33;9.80;99.90
69031;DHT22;56083;48.774;8.942;2023-04-30T02:03:59;9.80;99.90
69031;DHT22;56083;48.774;8.942;2023-04-30T02:06:25;9.70;99.90
69031;DHT22;56083;48.774;8.942;2023-04-30T02:08:55;9.70;99.90
69031;DHT22;56083;48.774;8.942;2023-04-30T02:11:21;9.70;99.90
69031;DHT22;56083;48.774;8.942;2023-04-30T02:13:50;9.70;99.90
69031;DHT22;56083;48.774;8.942;2023-04-30T02:16:15;9.70;99.90
69031;DHT22;56083;48.774;8.942;2023-04-30T02:18:41;9.70;99.90
69031;DHT22;56083;48.774;8.942;2023-04-30T02:21:07;9.60;99.90
69031;DHT22;56083;48.774;8.942;2023-04-30T02:23:32;9.60;99.90
69031;DHT22;56083;48.774;8.942;2023-04-30T02:25:58;9.60;99.90
69031;DHT22;56083;48.774;8.942;2023-04-30T02:28:23;9.60;99.90
69031;DHT22;56083;48.774;8.942;2023-04-30T02:30:49;9.60;99.90
69031;DHT22;56083;48.774;8.942;2023-04-30T02:33:15;9.60;99.90
69031;DHT22;56083;48.774;8.942;2023-04-30T02:35:41;9.50;99.90
69031;DHT22;56083;48.774;8.942;2023-04-30T02:38:06;9.50;99.90
69031;DHT22;56083;48.774;8.942;2023-04-30T02:40:32;9.50;99.90
69031;DHT22;56083;48.774;8.942;2023-04-30T02:42:58;9.50;99.90
69031;DHT22;56083;48.774;8.942;2023-04-30T02:45:25;9.40;99.90
69031;DHT22;56083;48.774;8.942;2023-04-30T02:47:51;9.40;99.90
69031;DHT22;56083;48.774;8.942;2023-04-30T02:50:16;9.30;99.90
69031;DHT22;56083;48.774;8.942;2023-04-30T02:52:44;9.30;99.90
69031;DHT22;56083;48.774;8.942;2023-04-30T02:55:10;9.30;99.90
69031;DHT22;56083;48.774;8.942;2023-04-30T02:57:36;9.30;99.90
69031;DHT22;56083;48.774;8.942;2023-04-30T03:00:02;9.20;99.90
69031;DHT22;56083;48.774;8.942;2023-04-30T03:02:28;9.20;99.90
69031;DHT22;56083;48.774;8.942;2023-04-30T03:04:53;9.10;99.90
69031;DHT22;56083;48.774;8.942;2023-04-30T03:07:19;9.10;99.90
69031;DHT22;56083;48.774;8.942;2023-04-30T03:09:45;9.00;99.90
69031;DHT22;56083;48.774;8.942;2023-04-30T03:12:11;9.00;99.90
69031;DHT22;56083;48.774;8.942;2023-04-30T03:14:36;9.00;99.90
69031;DHT22;56083;48.774;8.942;2023-04-30T03:17:02;9.00;99.90
69031;DHT22;56083;48.774;8.942;2023-04-30T03:19:27;9.00;99.90
69031;DHT22;56083;48.774;8.942;2023-04-30T03:21:53;9.00;99.90
69031;DHT22;56083;48.774;8.942;2023-04-30T03:24:19;9.00;99.90
69031;DHT22;56083;48.774;8.942;2023-04-30T03:26:46;9.00;99.90
69031;DHT22;56083;48.774;8.942;2023-04-30T03:29:12;9.10;99.90
69031;DHT22;56083;48.774;8.942;2023-04-30T03:31:37;9.10;99.90
69031;DHT22;56083;48.774;8.942;2023-04-30T03:34:03;9.10;99.90
69031;DHT22;56083;48.774;8.942;2023-04-30T03:36:29;9.10;99.90
69031;DHT22;56083;48.774;8.942;2023-04-30T03:38:55;9.10;99.90
69031;DHT22;56083;48.774;8.942;2023-04-30T03:41:21;9.00;99.90
69031;DHT22;56083;48.774;8.942;2023-04-30T03:43:48;9.10;99.90
69031;DHT22;56083;48.774;8.942;2023-04-30T03:46:14;9.10;99.90
69031;DHT22;56083;48.774;8.942;2023-04-30T03:48:39;9.00;99.90
69031;DHT22;56083;48.774;8.942;2023-04-30T03:51:05;9.10;99.90
69031;DHT22;56083;48.774;8.942;2023-04-30T03:53:31;9.00;99.90
69031;DHT22;56083;48.774;8.942;2023-04-30T03:55:56;9.00;99.90
69031;DHT22;56083;48.774;8.942;2023-04-30T03:58:23;9.00;99.90
69031;DHT22;56083;48.774;8.942;2023-04-30T04:00:48;8.90;99.90
69031;DHT22;56083;48.774;8.942;2023-04-30T04:03:14;8.90;99.90
69031;DHT22;56083;48.774;8.942;2023-04-30T04:05:40;8.90;99.90
69031;DHT22;56083;48.774;8.942;2023-04-30T04:08:06;8.90;99.90
69031;DHT22;56083;48.774;8.942;2023-04-30T04:10:33;8.90;99.90
69031;DHT22;56083;48.774;8.942;2023-04-30T04:12:59;8.90;99.90
69031;DHT22;56083;48.774;8.942;2023-04-30T04:15:25;8.90;99.90
69031;DHT22;56083;48.774;8.942;2023-04-30T04:17:50;8.90;99.90
69031;DHT22;56083;48.774;8.942;2023-04-30T04:20:16;8.90;99.90
69031;DHT22;56083;48.774;8.942;2023-04-30T04:22:42;9.00;99.90
69031;DHT22;56083;48.774;8.942;2023-04-30T04:25:08;8.90;99.90
69031;DHT22;56083;48.774;8.942;2023-04-30T04:27:35;8.90;99.90
69031;DHT22;56083;48.774;8.942;2023-04-30T04:30:04;8.90;99.90
69031;DHT22;56083;48.774;8.942;2023-04-30T04:32:30;8.90;99.90
69031;DHT22;56083;48.774;8.942;2023-04-30T04:34:57;8.90;99.90
69031;DHT22;56083;48.774;8.942;2023-04-30T04:37:23;8.90;99.90
69031;DHT22;56083;48.774;8.942;2023-04-30T04:39:48;8.90;99.90
69031;DHT22;56083;48.774;8.942;2023-04-30T04:42:15;8.90;99.90
69031;DHT22;56083;48.774;8.942;2023-04-30T04:44:42;8.90;99.90
69031;DHT22;56083;48.774;8.942;2023-04-30T04:47:08;8.90;99.90
69031;DHT22;56083;48.774;8.942;2023-04-30T04:49:34;8.90;99.90
69031;DHT22;56083;48.774;8.942;2023-04-30T04:52:00;8.90;99.90
69031;DHT22;56083;48.774;8.942;2023-04-30T04:54:26;9.00;99.90
69031;DHT22;56083;48.774;8.942;2023-04-30T04:56:52;9.00;99.90
69031;DHT22;56083;48.774;8.942;2023-04-30T04:59:17;9.00;99.90
69031;DHT22;56083;48.774;8.942;2023-04-30T05:01:43;9.10;99.90
69031;DHT22;56083;48.774;8.942;2023-04-30T05:04:09;9.20;99.90
69031;DHT22;56083;48.774;8.942;2023-04-30T05:06:34;9.20;99.90
69031;DHT22;56083;48.774;8.942;2023-04-30T05:09:00;9.30;99.90
69031;DHT22;56083;48.774;8.942;2023-04-30T05:11:27;9.30;99.90
69031;DHT22;56083;48.774;8.942;2023-04-30T05:13:53;9.50;99.90
69031;DHT22;56083;48.774;8.942;2023-04-30T05:16:18;9.50;99.90
69031;DHT22;56083;48.774;8.942;2023-04-30T05:18:44;9.60;99.90
69031;DHT22;56083;48.774;8.942;2023-04-30T05:21:09;9.70;99.90
69031;DHT22;56083;48.774;8.942;2023-04-30T05:23:35;9.70;99.90
69031;DHT22;56083;48.774;8.942;2023-04-30T05:26:00;9.70;99.90
69031;DHT22;56083;48.774;8.942;2023-04-30T05:28:26;9.80;99.90
69031;DHT22;56083;48.774;8.942;2023-04-30T05:30:52;9.90;99.90
69031;DHT22;56083;48.774;8.942;2023-04-30T05:33:17;9.90;99.90
69031;DHT22;56083;48.774;8.942;2023-04-30T05:35:43;9.90;99.90
69031;DHT22;56083;48.774;8.942;2023-04-30T05:38:09;10.00;99.90
69031;DHT22;56083;48.774;8.942;2023-04-30T05:40:34;10.00;99.90
69031;DHT22;56083;48.774;8.942;2023-04-30T05:43:00;9.90;99.90
69031;DHT22;56083;48.774;8.942;2023-04-30T05:45:26;10.00;99.90
69031;DHT22;56083;48.774;8.942;2023-04-30T05:47:52;10.00;99.90
69031;DHT22;56083;48.774;8.942;2023-04-30T05:50:17;10.00;99.90
69031;DHT22;56083;48.774;8.942;2023-04-30T05:52:43;9.90;99.90
69031;DHT22;56083;48.774;8.942;2023-04-30T05:55:09;10.00;99.90
69031;DHT22;56083;48.774;8.942;2023-04-30T05:57:35;10.00;99.90
69031;DHT22;56083;48.774;8.942;2023-04-30T06:00:01;10.10;99.90
69031;DHT22;56083;48.774;8.942;2023-04-30T06:02:27;10.30;99.90
69031;DHT22;56083;48.774;8.942;2023-04-30T06:04:52;10.30;99.90
69031;DHT22;56083;48.774;8.942;2023-04-30T06:07:18;10.50;99.90
69031;DHT22;56083;48.774;8.942;2023-04-30T06:09:44;10.80;99.90
69031;DHT22;56083;48.774;8.942;2023-04-30T06:12:10;10.90;99.90
69031;DHT22;56083;48.774;8.942;2023-04-30T06:14:36;11.10;99.90
69031;DHT22;56083;48.774;8.942;2023-04-30T06:17:01;11.30;99.90
69031;DHT22;56083;48.774;8.942;2023-04-30T06:19:27;11.60;99.90
69031;DHT22;56083;48.774;8.942;2023-04-30T06:21:54;11.80;99.90
69031;DHT22;56083;48.774;8.942;2023-04-30T06:24:22;12.00;99.90
69031;DHT22;56083;48.774;8.942;2023-04-30T06:26:48;12.10;99.90
69031;DHT22;56083;48.774;8.942;2023-04-30T06:29:13;12.30;99.90
69031;DHT22;56083;48.774;8.942;2023-04-30T06:31:39;12.40;99.90
69031;DHT22;56083;48.774;8.942;2023-04-30T06:34:04;12.60;99.90
69031;DHT22;56083;48.774;8.942;2023-04-30T06:36:30;12.80;99.90
69031;DHT22;56083;48.774;8.942;2023-04-30T06:38:56;13.00;99.90
69031;DHT22;56083;48.774;8.942;2023-04-30T06:41:22;13.10;99.90
69031;DHT22;56083;48.774;8.942;2023-04-30T06:43:48;13.20;99.90
69031;DHT22;56083;48.774;8.942;2023-04-30T06:46:15;13.20;99.90
69031;DHT22;56083;48.774;8.942;2023-04-30T06:48:40;13.10;99.90
69031;DHT22;56083;48.774;8.942;2023-04-30T06:51:07;13.30;99.90
69031;DHT22;56083;48.774;8.942;2023-04-30T06:53:33;13.30;99.90
69031;DHT22;56083;48.774;8.942;2023-04-30T06:55:58;13.70;99.90
69031;DHT22;56083;48.774;8.942;2023-04-30T06:58:25;14.00;99.90
69031;DHT22;56083;48.774;8.942;2023-04-30T07:00:51;14.20;99.90
69031;DHT22;56083;48.774;8.942;2023-04-30T07:03:17;14.20;99.90
69031;DHT22;56083;48.774;8.942;2023-04-30T07:05:43;14.20;99.90
69031;DHT22;56083;48.774;8.942;2023-04-30T07:08:09;14.30;99.90
69031;DHT22;56083;48.774;8.942;2023-04-30T07:10:41;14.40;99.90
69031;DHT22;56083;48.774;8.942;2023-04-30T07:13:07;14.60;99.90
69031;DHT22;56083;48.774;8.942;2023-04-30T07:15:33;14.60;99.90
69031;DHT22;56083;48.774;8.942;2023-04-30T07:17:59;14.80;99.90
69031;DHT22;56083;48.774;8.942;2023-04-30T07:20:25;15.10;99.90
69031;DHT22;56083;48.774;8.942;2023-04-30T07:22:51;15.20;99.90
69031;DHT22;56083;48.774;8.942;2023-04-30T07:25:16;15.40;99.90
69031;DHT22;56083;48.774;8.942;2023-04-30T07:27:42;15.80;99.90
69031;DHT22;56083;48.774;8.942;2023-04-30T07:30:09;15.90;99.90
69031;DHT22;56083;48.774;8.942;2023-04-30T07:32:35;16.10;99.90
69031;DHT22;56083;48.774;8.942;2023-04-30T07:35:01;16.40;99.90
69031;DHT22;56083;48.774;8.942;2023-04-30T07:37:27;16.70;99.90
69031;DHT22;56083;48.774;8.942;2023-04-30T07:39:53;17.40;99.90
69031;DHT22;56083;48.774;8.942;2023-04-30T07:42:19;18.00;99.90
69031;DHT22;56083;48.774;8.942;2023-04-30T07:44:44;18.00;99.90
69031;DHT22;56083;48.774;8.942;2023-04-30T07:47:10;18.40;99.90
69031;DHT22;56083;48.774;8.942;2023-04-30T07:49:36;18.70;99.90
69031;DHT22;56083;48.774;8.942;2023-04-30T07:52:03;18.80;99.90
69031;DHT22;56083;48.774;8.942;2023-04-30T07:54:29;18.80;99.90
69031;DHT22;56083;48.774;8.942;2023-04-30T07:56:55;18.50;99.90
69031;DHT22;56083;48.774;8.942;2023-04-30T07:59:20;18.50;99.90
69031;DHT22;56083;48.774;8.942;2023-04-30T08:01:49;18.50;99.90
69031;DHT22;56083;48.774;8.942;2023-04-30T08:04:15;18.90;99.90
69031;DHT22;56083;48.774;8.942;2023-04-30T08:06:41;19.30;99.90
69031;DHT22;56083;48.774;8.942;2023-04-30T08:09:07;19.80;99.90
69031;DHT22;56083;48.774;8.942;2023-04-30T08:11:33;20.00;99.90
69031;DHT22;56083;48.774;8.942;2023-04-30T08:13:59;20.10;99.90
69031;DHT22;56083;48.774;8.942;2023-04-30T08:16:24;20.30;99.90
69031;DHT22;56083;48.774;8.942;2023-04-30T08:18:50;20.30;99.90
69031;DHT22;56083;48.774;8.942;2023-04-30T08:21:16;19.80;99.90
69031;DHT22;56083;48.774;8.942;2023-04-30T08:23:42;19.50;99.90
69031;DHT22;56083;48.774;8.942;2023-04-30T08:26:08;18.70;99.90
69031;DHT22;56083;48.774;8.942;2023-04-30T08:28:35;18.80;99.90
69031;DHT22;56083;48.774;8.942;2023-04-30T08:31:01;19.50;99.90
69031;DHT22;56083;48.774;8.942;2023-04-30T08:33:26;20.60;99.90
69031;DHT22;56083;48.774;8.942;2023-04-30T08:35:52;20.60;99.90
69031;DHT22;56083;48.774;8.942;2023-04-30T08:38:19;20.10;99.90
69031;DHT22;56083;48.774;8.942;2023-04-30T08:40:51;19.40;99.90
69031;DHT22;56083;48.774;8.942;2023-04-30T08:43:19;18.90;99.90
69031;DHT22;56083;48.774;8.942;2023-04-30T08:45:46;19.30;99.90
69031;DHT22;56083;48.774;8.942;2023-04-30T08:48:12;19.20;99.90
69031;DHT22;56083;48.774;8.942;2023-04-30T08:50:40;18.50;99.90
69031;DHT22;56083;48.774;8.942;2023-04-30T08:53:07;18.30;99.90
69031;DHT22;56083;48.774;8.942;2023-04-30T08:55:35;17.80;99.90
69031;DHT22;56083;48.774;8.942;2023-04-30T08:58:03;17.70;99.90
69031;DHT22;56083;48.774;8.942;2023-04-30T09:00:31;17.80;99.90
69031;DHT22;56083;48.774;8.942;2023-04-30T09:02:57;17.80;99.90
69031;DHT22;56083;48.774;8.942;2023-04-30T09:05:23;17.70;99.90
69031;DHT22;56083;48.774;8.942;2023-04-30T09:07:48;17.70;99.90
69031;DHT22;56083;48.774;8.942;2023-04-30T09:10:18;17.80;99.90
69031;DHT22;56083;48.774;8.942;2023-04-30T09:12:58;17.70;99.90
69031;DHT22;56083;48.774;8.942;2023-04-30T09:15:24;17.80;99.90
69031;DHT22;56083;48.774;8.942;2023-04-30T09:17:50;17.80;99.90
69031;DHT22;56083;48.774;8.942;2023-04-30T09:20:15;17.50;99.90
69031;DHT22;56083;48.774;8.942;2023-04-30T09:22:42;17.60;99.90
69031;DHT22;56083;48.774;8.942;2023-04-30T09:25:09;17.60;99.90
69031;DHT22;56083;48.774;8.942;2023-04-30T09:27:35;17.60;99.90
69031;DHT22;56083;48.774;8.942;2023-04-30T09:30:02;18.70;99.90
69031;DHT22;56083;48.774;8.942;2023-04-30T09:32:27;19.30;99.90
69031;DHT22;56083;48.774;8.942;2023-04-30T09:34:54;19.60;99.90
69031;DHT22;56083;48.774;8.942;2023-04-30T09:37:20;19.60;99.90
69031;DHT22;56083;48.774;8.942;2023-04-30T09:39:50;19.50;99.90
69031;DHT22;56083;48.774;8.942;2023-04-30T09:42:17;19.00;99.90
69031;DHT22;56083;48.774;8.942;2023-04-30T09:44:44;18.30;99.90
69031;DHT22;56083;48.774;8.942;2023-04-30T09:47:19;17.90;99.90
69031;DHT22;56083;48.774;8.942;2023-04-30T09:49:50;17.50;99.90
69031;DHT22;56083;48.774;8.942;2023-04-30T09:55:19;17.10;99.90
69031;DHT22;56083;48.774;8.942;2023-04-30T09:57:47;16.90;99.90
69031;DHT22;56083;48.774;8.942;2023-04-30T10:00:14;16.80;99.90
69031;DHT22;56083;48.774;8.942;2023-04-30T10:02:42;17.00;99.90
69031;DHT22;56083;48.774;8.942;2023-04-30T10:05:07;17.10;99.90
69031;DHT22;56083;48.774;8.942;2023-04-30T10:07:35;17.20;99.90
69031;DHT22;56083;48.774;8.942;2023-04-30T10:10:07;17.10;99.90
69031;DHT22;56083;48.774;8.942;2023-04-30T10:12:46;16.90;99.90
69031;DHT22;56083;48.774;8.942;2023-04-30T10:15:34;16.90;99.90
69031;DHT22;56083;48.774;8.942;2023-04-30T10:18:32;16.70;99.90
69031;DHT22;56083;48.774;8.942;2023-04-30T10:20:56;16.60;99.90
69031;DHT22;56083;48.774;8.942;2023-04-30T10:23:24;16.60;99.90
69031;DHT22;56083;48.774;8.942;2023-04-30T10:25:50;16.60;99.90
69031;DHT22;56083;48.774;8.942;2023-04-30T10:28:15;16.60;99.90
69031;DHT22;56083;48.774;8.942;2023-04-30T10:30:41;16.80;99.90
69031;DHT22;56083;48.774;8.942;2023-04-30T10:35:48;17.30;99.90
69031;DHT22;56083;48.774;8.942;2023-04-30T10:38:22;17.60;99.90
69031;DHT22;56083;48.774;8.942;2023-04-30T10:40:49;17.80;99.90
69031;DHT22;56083;48.774;8.942;2023-04-30T10:43:18;17.60;99.90
69031;DHT22;56083;48.774;8.942;2023-04-30T10:45:45;17.60;99.90
69031;DHT22;56083;48.774;8.942;2023-04-30T10:48:14;17.50;99.90
69031;DHT22;56083;48.774;8.942;2023-04-30T10:50:45;17.30;99.90
69031;DHT22;56083;48.774;8.942;2023-04-30T10:53:16;17.40;99.90
69031;DHT22;56083;48.774;8.942;2023-04-30T10:55:57;17.20;99.90
69031;DHT22;56083;48.774;8.942;2023-04-30T10:58:34;17.30;99.90
69031;DHT22;56083;48.774;8.942;2023-04-30T11:01:07;17.60;99.90
69031;DHT22;56083;48.774;8.942;2023-04-30T11:03:34;17.90;99.90
69031;DHT22;56083;48.774;8.942;2023-04-30T11:06:21;17.90;99.90
69031;DHT22;56083;48.774;8.942;2023-04-30T11:08:50;17.80;99.90
69031;DHT22;56083;48.774;8.942;2023-04-30T11:11:17;17.80;99.90
69031;DHT22;56083;48.774;8.942;2023-04-30T11:13:47;17.80;99.90
69031;DHT22;56083;48.774;8.942;2023-04-30T11:16:15;17.70;99.90
69031;DHT22;56083;48.774;8.942;2023-04-30T11:18:45;17.70;99.90
69031;DHT22;56083;48.774;8.942;2023-04-30T11:21:11;17.80;99.90
69031;DHT22;56083;48.774;8.942;2023-04-30T11:23:41;17.90;99.90
69031;DHT22;56083;48.774;8.942;2023-04-30T11:26:10;18.00;99.90
69031;DHT22;56083;48.774;8.942;2023-04-30T11:28:36;18.20;99.90
69031;DHT22;56083;48.774;8.942;2023-04-30T11:31:09;18.30;99.90
69031;DHT22;56083;48.774;8.942;2023-04-30T11:33:35;18.60;99.90
69031;DHT22;56083;48.774;8.942;2023-04-30T11:36:01;18.50;99.90
69031;DHT22;56083;48.774;8.942;2023-04-30T11:38:36;18.90;99.90
69031;DHT22;56083;48.774;8.942;2023-04-30T11:41:03;18.70;99.90
69031;DHT22;56083;48.774;8.942;2023-04-30T11:43:33;18.30;99.90
69031;DHT22;56083;48.774;8.942;2023-04-30T11:46:10;18.40;99.90
69031;DHT22;56083;48.774;8.942;2023-04-30T11:48:40;18.30;99.90
69031;DHT22;56083;48.774;8.942;2023-04-30T11:53:39;18.30;99.90
69031;DHT22;56083;48.774;8.942;2023-04-30T11:56:06;18.30;99.90
69031;DHT22;56083;48.774;8.942;2023-04-30T11:58:33;18.60;99.90
69031;DHT22;56083;48.774;8.942;2023-04-30T12:01:00;18.70;99.90
69031;DHT22;56083;48.774;8.942;2023-04-30T12:03:25;18.50;99.90
69031;DHT22;56083;48.774;8.942;2023-04-30T12:05:51;18.40;99.90
69031;DHT22;56083;48.774;8.942;2023-04-30T12:08:18;17.80;99.90
69031;DHT22;56083;48.774;8.942;2023-04-30T12:10:44;17.60;99.90
69031;DHT22;56083;48.774;8.942;2023-04-30T12:13:13;17.60;99.90
69031;DHT22;56083;48.774;8.942;2023-04-30T12:15:39;17.80;99.90
69031;DHT22;56083;48.774;8.942;2023-04-30T12:18:12;17.90;99.90
69031;DHT22;56083;48.774;8.942;2023-04-30T12:20:38;18.10;99.90
69031;DHT22;56083;48.774;8.942;2023-04-30T12:23:05;18.00;99.90
69031;DHT22;56083;48.774;8.942;2023-04-30T12:25:39;18.10;99.90
69031;DHT22;56083;48.774;8.942;2023-04-30T12:28:05;18.00;99.90
69031;DHT22;56083;48.774;8.942;2023-04-30T12:30:31;18.10;99.90
69031;DHT22;56083;48.774;8.942;2023-04-30T12:32:57;18.30;99.90
69031;DHT22;56083;48.774;8.942;2023-04-30T12:35:27;18.20;99.90
69031;DHT22;56083;48.774;8.942;2023-04-30T12:38:01;18.20;99.90
69031;DHT22;56083;48.774;8.942;2023-04-30T12:40:27;18.60;99.90
69031;DHT22;56083;48.774;8.942;2023-04-30T12:43:07;19.00;99.90
69031;DHT22;56083;48.774;8.942;2023-04-30T12:45:53;18.80;99.90
69031;DHT22;56083;48.774;8.942;2023-04-30T12:48:21;18.50;99.90
69031;DHT22;56083;48.774;8.942;2023-04-30T12:50:58;18.20;99.90
69031;DHT22;56083;48.774;8.942;2023-04-30T12:53:24;18.10;99.90
69031;DHT22;56083;48.774;8.942;2023-04-30T12:56:15;18.40;99.90
69031;DHT22;56083;48.774;8.942;2023-04-30T12:58:42;18.80;99.90
69031;DHT22;56083;48.774;8.942;2023-04-30T13:01:11;18.80;99.90
69031;DHT22;56083;48.774;8.942;2023-04-30T13:03:37;19.00;99.90
69031;DHT22;56083;48.774;8.942;2023-04-30T13:06:03;19.00;99.90
69031;DHT22;56083;48.774;8.942;2023-04-30T13:08:31;19.30;99.90
69031;DHT22;56083;48.774;8.942;2023-04-30T13:10:56;19.30;99.90
69031;DHT22;56083;48.774;8.942;2023-04-30T13:13:22;19.40;99.90
69031;DHT22;56083;48.774;8.942;2023-04-30T13:15:47;19.50;99.90
69031;DHT22;56083;48.774;8.942;2023-04-30T13:18:13;19.80;99.90
69031;DHT22;56083;48.774;8.942;2023-04-30T13:20:41;20.10;99.90
69031;DHT22;56083;48.774;8.942;2023-04-30T13:23:10;20.30;99.90
69031;DHT22;56083;48.774;8.942;2023-04-30T13:25:37;20.40;99.90
69031;DHT22;56083;48.774;8.942;2023-04-30T13:28:03;20.20;99.90
69031;DHT22;56083;48.774;8.942;2023-04-30T13:30:29;20.00;99.90
69031;DHT22;56083;48.774;8.942;2023-04-30T13:32:55;20.00;99.90
69031;DHT22;56083;48.774;8.942;2023-04-30T13:35:21;19.80;99.90
69031;DHT22;56083;48.774;8.942;2023-04-30T13:37:46;19.80;99.90
69031;DHT22;56083;48.774;8.942;2023-04-30T13:40:14;20.00;99.90
69031;DHT22;56083;48.774;8.942;2023-04-30T13:42:41;20.20;99.90
69031;DHT22;56083;48.774;8.942;2023-04-30T13:45:07;20.70;99.90
69031;DHT22;56083;48.774;8.942;2023-04-30T13:47:33;20.60;99.10
69031;DHT22;56083;48.774;8.942;2023-04-30T13:50:07;20.60;99.90
69031;DHT22;56083;48.774;8.942;2023-04-30T13:52:34;20.40;99.90
69031;DHT22;56083;48.774;8.942;2023-04-30T13:54:59;20.50;99.90
69031;DHT22;56083;48.774;8.942;2023-04-30T13:57:25;20.80;99.90
69031;DHT22;56083;48.774;8.942;2023-04-30T13:59:54;21.10;99.90
69031;DHT22;56083;48.774;8.942;2023-04-30T14:02:20;21.50;99.80
69031;DHT22;56083;48.774;8.942;2023-04-30T14:04:46;21.10;98.60
69031;DHT22;56083;48.774;8.942;2023-04-30T14:07:11;21.10;99.30
69031;DHT22;56083;48.774;8.942;2023-04-30T14:09:37;20.70;98.70
69031;DHT22;56083;48.774;8.942;2023-04-30T14:12:03;20.30;98.80
69031;DHT22;56083;48.774;8.942;2023-04-30T14:14:28;19.70;98.50
69031;DHT22;56083;48.774;8.942;2023-04-30T14:16:55;19.60;99.30
69031;DHT22;56083;48.774;8.942;2023-04-30T14:19:21;19.40;98.70
69031;DHT22;56083;48.774;8.942;2023-04-30T14:21:47;19.40;97.90
69031;DHT22;56083;48.774;8.942;2023-04-30T14:24:13;19.40;99.90
69031;DHT22;56083;48.774;8.942;2023-04-30T14:26:40;19.40;99.90
69031;DHT22;56083;48.774;8.942;2023-04-30T14:29:06;19.20;99.80
69031;DHT22;56083;48.774;8.942;2023-04-30T14:31:32;19.40;99.20
69031;DHT22;56083;48.774;8.942;2023-04-30T14:33:57;19.30;99.10
69031;DHT22;56083;48.774;8.942;2023-04-30T14:36:23;19.80;99.50
69031;DHT22;56083;48.774;8.942;2023-04-30T14:38:49;19.80;97.10
69031;DHT22;56083;48.774;8.942;2023-04-30T14:41:14;20.50;98.30
69031;DHT22;56083;48.774;8.942;2023-04-30T14:43:40;20.60;96.30
69031;DHT22;56083;48.774;8.942;2023-04-30T14:46:06;20.70;98.00
69031;DHT22;56083;48.774;8.942;2023-04-30T14:48:32;21.00;96.60
69031;DHT22;56083;48.774;8.942;2023-04-30T14:50:58;21.70;96.50
69031;DHT22;56083;48.774;8.942;2023-04-30T14:53:25;21.30;94.70
69031;DHT22;56083;48.774;8.942;2023-04-30T14:55:52;21.10;94.80
69031;DHT22;56083;48.774;8.942;2023-04-30T14:58:18;21.50;94.30
69031;DHT22;56083;48.774;8.942;2023-04-30T15:00:44;21.90;95.10
69031;DHT22;56083;48.774;8.942;2023-04-30T15:03:11;22.10;94.40
69031;DHT22;56083;48.774;8.942;2023-04-30T15:05:36;22.30;94.00
69031;DHT22;56083;48.774;8.942;2023-04-30T15:08:02;22.60;93.60
69031;DHT22;56083;48.774;8.942;2023-04-30T15:10:28;22.80;93.30
69031;DHT22;56083;48.774;8.942;2023-04-30T15:12:53;22.80;93.10
69031;DHT22;56083;48.774;8.942;2023-04-30T15:15:19;22.40;91.30
69031;DHT22;56083;48.774;8.942;2023-04-30T15:17:47;22.20;93.20
69031;DHT22;56083;48.774;8.942;2023-04-30T15:20:13;22.10;94.10
69031;DHT22;56083;48.774;8.942;2023-04-30T15:22:39;21.70;94.70
69031;DHT22;56083;48.774;8.942;2023-04-30T15:25:05;21.20;95.30
69031;DHT22;56083;48.774;8.942;2023-04-30T15:27:30;20.90;96.00
69031;DHT22;56083;48.774;8.942;2023-04-30T15:29:57;20.60;95.80
69031;DHT22;56083;48.774;8.942;2023-04-30T15:32:22;20.20;95.60
69031;DHT22;56083;48.774;8.942;2023-04-30T15:34:48;19.70;95.00
69031;DHT22;56083;48.774;8.942;2023-04-30T15:37:13;19.70;96.00
69031;DHT22;56083;48.774;8.942;2023-04-30T15:39:39;19.20;95.10
69031;DHT22;56083;48.774;8.942;2023-04-30T15:42:05;19.30;95.60
69031;DHT22;56083;48.774;8.942;2023-04-30T15:44:30;19.10;95.80
69031;DHT22;56083;48.774;8.942;2023-04-30T15:46:56;19.10;96.90
69031;DHT22;56083;48.774;8.942;2023-04-30T15:49:22;19.10;97.20
69031;DHT22;56083;48.774;8.942;2023-04-30T15:51:49;18.80;96.20
69031;DHT22;56083;48.774;8.942;2023-04-30T15:54:15;18.50;96.80
69031;DHT22;56083;48.774;8.942;2023-04-30T15:56:41;18.60;96.70
69031;DHT22;56083;48.774;8.942;2023-04-30T15:59:07;18.40;96.40
69031;DHT22;56083;48.774;8.942;2023-04-30T16:01:33;18.30;97.10